createdAt,value
2022-08-29T00:00:16.580Z,4.30
2022-08-29T00:05:42.834Z,5.60
2022-08-29T00:10:56.297Z,4.40
2022-08-29T00:16:02.334Z,4.20
2022-08-29T00:21:08.810Z,4.80
2022-08-29T00:26:15.044Z,5.30
2022-08-29T00:31:21.029Z,4.10
2022-08-29T00:36:27.101Z,5.30
2022-08-29T00:41:36.500Z,4.60
2022-08-29T00:46:54.247Z,5.00
2022-08-29T00:52:05.439Z,4.90
2022-08-29T00:57:11.917Z,4.60
2022-08-29T01:02:19.175Z,5.10
2022-08-29T01:07:25.280Z,5.40
2022-08-29T01:12:31.375Z,5.50
2022-08-29T01:17:43.933Z,5.10
2022-08-29T01:22:59.051Z,5.40
2022-08-29T01:28:12.031Z,5.40
2022-08-29T01:33:18.039Z,5.30
2022-08-29T01:38:29.967Z,6.00
2022-08-29T01:43:42.412Z,5.80
2022-08-29T01:48:48.989Z,6.60
2022-08-29T01:53:55.265Z,5.90
2022-08-29T01:59:03.726Z,6.90
2022-08-29T02:04:10.030Z,7.30
2022-08-29T02:09:16.070Z,7.20
2022-08-29T02:14:23.585Z,7.00
2022-08-29T02:19:29.543Z,7.30
2022-08-29T02:24:35.924Z,6.30
2022-08-29T02:29:42.117Z,7.50
2022-08-29T02:34:48.546Z,8.10
2022-08-29T02:39:54.831Z,7.40
2022-08-29T02:45:01.258Z,7.90
2022-08-29T02:50:09.664Z,7.10
2022-08-29T02:55:18.329Z,7.30
2022-08-29T03:00:27.386Z,7.40
2022-08-29T03:06:53.654Z,14.30
2022-08-29T03:11:59.571Z,18.40
2022-08-29T03:17:05.809Z,17.80
2022-08-29T03:22:11.849Z,19.20
2022-08-29T03:27:19.088Z,20.10
2022-08-29T03:32:25.840Z,19.50
2022-08-29T03:37:32.727Z,20.00
2022-08-29T03:42:38.893Z,19.00
2022-08-29T03:47:44.899Z,19.40
2022-08-29T03:52:51.531Z,20.80
2022-08-29T03:57:57.665Z,20.30
2022-08-29T04:03:03.912Z,19.40
2022-08-29T04:08:09.985Z,18.50
2022-08-29T04:13:15.883Z,18.30
2022-08-29T04:18:22.555Z,17.90
2022-08-29T04:23:28.423Z,15.70
2022-08-29T04:28:34.402Z,15.10
2022-08-29T04:33:41.165Z,13.00
2022-08-29T04:38:47.066Z,11.70
2022-08-29T04:43:53.547Z,12.00
2022-08-29T04:49:03.969Z,12.50
2022-08-29T04:54:10.474Z,11.40
2022-08-29T04:59:17.105Z,10.90
2022-08-29T05:04:25.278Z,11.10
2022-08-29T05:09:31.213Z,10.80
2022-08-29T05:14:51.496Z,10.20
2022-08-29T05:20:39.971Z,9.80
2022-08-29T05:32:18.519Z,6.80
2022-08-29T05:38:19.429Z,3.80
2022-08-29T05:43:54.468Z,3.10
2022-08-29T06:01:08.025Z,2.10
2022-08-29T06:06:14.122Z,2.50
2022-08-29T06:11:22.613Z,2.80
2022-08-29T06:16:29.857Z,2.70
2022-08-29T06:21:35.861Z,2.70
2022-08-29T06:26:42.869Z,2.50
2022-08-29T06:32:07.325Z,2.50
2022-08-29T06:37:13.481Z,2.50
2022-08-29T06:42:23.913Z,2.70
2022-08-29T06:47:34.555Z,2.20
2022-08-29T06:52:40.553Z,2.40
2022-08-29T06:57:47.034Z,2.50
2022-08-29T07:02:53.780Z,2.40
2022-08-29T07:07:59.745Z,2.90
2022-08-29T07:13:05.597Z,3.40
2022-08-29T07:18:11.935Z,3.50
2022-08-29T07:23:18.263Z,4.20
2022-08-29T07:28:24.190Z,4.50
2022-08-29T07:33:30.166Z,4.70
2022-08-29T07:38:36.541Z,5.00
2022-08-29T07:43:43.449Z,5.30
2022-08-29T07:48:49.530Z,5.60
2022-08-29T07:53:56.812Z,6.80
2022-08-29T07:59:02.666Z,7.00
2022-08-29T08:04:11.045Z,6.90
2022-08-29T08:09:17.009Z,6.10
2022-08-29T08:14:22.888Z,5.90
2022-08-29T08:19:40.865Z,6.20
2022-08-29T08:24:48.557Z,4.90
2022-08-29T08:29:55.557Z,4.80
2022-08-29T08:35:04.529Z,4.40
2022-08-29T08:40:19.816Z,4.40
2022-08-29T08:45:33.476Z,3.90
2022-08-29T08:50:54.513Z,4.60
2022-08-29T08:56:04.873Z,4.70
2022-08-29T09:01:18.758Z,4.40
2022-08-29T09:06:37.887Z,4.20
2022-08-29T09:11:56.362Z,4.30
2022-08-29T09:17:04.108Z,3.70
2022-08-29T09:22:16.595Z,4.20
2022-08-29T09:27:24.278Z,4.20
2022-08-29T09:32:30.198Z,3.80
2022-08-29T09:37:36.915Z,3.70
2022-08-29T09:42:49.731Z,4.00
2022-08-29T09:48:14.393Z,3.40
2022-08-29T09:53:25.478Z,3.10
2022-08-29T09:58:39.929Z,2.80
2022-08-29T10:03:58.577Z,2.90
2022-08-29T10:09:09.175Z,3.40
2022-08-29T10:14:23.511Z,3.50
2022-08-29T10:19:33.129Z,3.50
2022-08-29T10:24:57.826Z,2.90
2022-08-29T10:30:12.508Z,3.40
2022-08-29T10:35:24.469Z,2.70
2022-08-29T10:40:43.226Z,2.90
2022-08-29T10:46:04.070Z,2.60
2022-08-29T10:51:21.558Z,2.70
2022-08-29T10:56:33.007Z,3.50
2022-08-29T11:01:43.988Z,2.50
2022-08-29T11:06:58.195Z,3.20
2022-08-29T11:12:12.510Z,3.00
2022-08-29T11:17:26.338Z,2.60
2022-08-29T11:22:37.693Z,2.40
2022-08-29T11:27:53.604Z,2.20
2022-08-29T11:33:14.888Z,2.00
2022-08-29T11:38:49.780Z,2.10
2022-08-29T11:44:05.541Z,1.80
2022-08-29T11:49:41.977Z,1.80
2022-08-29T11:55:09.861Z,1.90
2022-08-29T12:00:42.669Z,1.80
2022-08-29T12:06:01.716Z,1.90
2022-08-29T12:11:07.724Z,2.00
2022-08-29T12:16:15.687Z,2.30
2022-08-29T12:21:47.177Z,2.20
2022-08-29T12:26:54.835Z,1.90
2022-08-29T12:32:43.226Z,1.60
2022-08-29T12:38:01.469Z,2.20
2022-08-29T12:43:29.446Z,2.10
2022-08-29T12:48:41.158Z,1.90
2022-08-29T12:53:50.725Z,1.60
2022-08-29T12:58:58.993Z,2.00
2022-08-29T13:04:13.510Z,1.90
2022-08-29T13:09:28.254Z,2.00
2022-08-29T13:14:36.118Z,1.80
2022-08-29T13:20:04.647Z,1.70
2022-08-29T13:25:10.791Z,2.40
2022-08-29T13:30:24.755Z,1.80
2022-08-29T13:35:33.053Z,2.10
2022-08-29T13:40:45.638Z,1.90
2022-08-29T13:46:00.823Z,1.80
2022-08-29T13:51:07.272Z,2.00
2022-08-29T13:56:23.235Z,1.80
2022-08-29T14:01:29.842Z,1.60
2022-08-29T14:06:36.726Z,1.80
2022-08-29T14:11:45.242Z,1.90
2022-08-29T14:16:53.688Z,1.90
2022-08-29T14:22:00.653Z,1.50
2022-08-29T14:27:08.521Z,1.80
2022-08-29T14:32:14.444Z,1.70
2022-08-29T14:37:20.924Z,1.90
2022-08-29T14:42:27.168Z,1.30
2022-08-29T14:47:33.563Z,1.70
2022-08-29T14:52:39.739Z,1.80
2022-08-29T14:57:45.653Z,1.80
2022-08-29T15:02:52.411Z,1.80
2022-08-29T15:08:00.720Z,1.80
2022-08-29T15:13:10.486Z,2.10
2022-08-29T15:18:42.788Z,1.90
2022-08-29T15:23:44.686Z,2.00
2022-08-29T15:28:50.626Z,2.10
2022-08-29T15:33:56.534Z,1.40
2022-08-29T15:39:05.820Z,1.60
2022-08-29T15:44:12.063Z,1.90
2022-08-29T15:49:18.743Z,1.70
2022-08-29T15:54:26.001Z,2.10
2022-08-29T15:59:56.720Z,1.80
2022-08-29T16:04:59.984Z,1.90
2022-08-29T16:10:11.149Z,1.90
2022-08-29T16:15:18.297Z,2.40
2022-08-29T16:20:24.099Z,1.90
2022-08-29T16:25:31.258Z,1.80
2022-08-29T16:30:44.251Z,1.70
2022-08-29T16:35:52.297Z,2.10
2022-08-29T16:41:05.054Z,2.30
2022-08-29T16:46:12.291Z,2.20
2022-08-29T16:51:19.001Z,2.50
2022-08-29T16:56:25.150Z,2.30
2022-08-29T17:01:33.254Z,2.00
2022-08-29T17:06:39.712Z,2.00
2022-08-29T17:11:45.991Z,1.90
2022-08-29T17:16:54.037Z,2.10
2022-08-29T17:22:00.014Z,2.00
2022-08-29T17:27:06.001Z,1.90
2022-08-29T17:32:24.126Z,2.30
2022-08-29T17:37:36.430Z,2.40
2022-08-29T17:43:16.504Z,2.20
2022-08-29T17:48:33.896Z,2.80
2022-08-29T17:53:45.828Z,2.60
2022-08-29T17:59:05.930Z,2.70
2022-08-29T18:04:20.668Z,2.30
2022-08-29T18:09:26.730Z,2.20
2022-08-29T18:14:33.654Z,2.60
2022-08-29T18:19:40.003Z,2.60
2022-08-29T18:24:48.934Z,5.10
2022-08-29T18:29:55.409Z,4.30
2022-08-29T18:50:36.462Z,3.50
2022-08-29T18:55:51.222Z,3.20
2022-08-29T19:00:59.560Z,3.10
2022-08-29T19:06:05.866Z,2.30
2022-08-29T19:11:11.881Z,2.60
2022-08-29T19:16:19.488Z,2.80
2022-08-29T19:21:26.188Z,3.00
2022-08-29T19:26:38.010Z,2.80
2022-08-29T19:31:46.363Z,3.20
2022-08-29T19:36:52.168Z,2.50
2022-08-29T19:41:58.245Z,3.40
2022-08-29T19:47:04.526Z,2.70
2022-08-29T19:52:10.918Z,2.90
2022-08-29T19:57:16.997Z,2.40
2022-08-29T20:02:22.960Z,2.40
2022-08-29T20:07:29.260Z,2.40
2022-08-29T20:12:37.942Z,2.40
2022-08-29T20:17:44.864Z,3.00
2022-08-29T20:22:51.377Z,2.50
2022-08-29T20:27:57.500Z,2.40
2022-08-29T20:33:04.674Z,3.20
2022-08-29T20:38:12.604Z,2.90
2022-08-29T20:43:19.662Z,3.00
2022-08-29T20:48:31.091Z,2.70
2022-08-29T20:53:38.562Z,3.00
2022-08-29T20:58:45.459Z,2.80
2022-08-29T21:04:10.385Z,2.40
2022-08-29T21:09:16.347Z,3.20
2022-08-29T21:14:22.847Z,3.50
2022-08-29T21:19:29.988Z,2.80
2022-08-29T21:24:36.131Z,3.30
2022-08-29T21:29:43.585Z,2.70
2022-08-29T21:34:49.546Z,3.10
2022-08-29T21:39:55.404Z,3.40
2022-08-29T21:45:01.725Z,3.70
2022-08-29T21:50:08.933Z,3.30
2022-08-29T21:55:15.721Z,3.70
2022-08-29T22:00:25.049Z,3.80
2022-08-29T22:05:31.639Z,3.90
2022-08-29T22:10:38.876Z,3.40
2022-08-29T22:16:03.995Z,3.20
2022-08-29T22:21:15.187Z,3.60
2022-08-29T22:26:21.890Z,4.10
2022-08-29T22:31:28.115Z,3.90
2022-08-29T22:36:34.876Z,3.40
2022-08-29T22:41:44.199Z,3.30
2022-08-29T22:46:54.014Z,3.70
2022-08-29T22:52:00.394Z,4.00
2022-08-29T22:57:09.089Z,4.10
2022-08-29T23:02:16.303Z,3.90
2022-08-29T23:07:22.283Z,4.80
2022-08-29T23:12:28.658Z,4.80
2022-08-29T23:17:34.552Z,4.30
2022-08-29T23:22:42.877Z,4.40
2022-08-29T23:27:48.949Z,4.40
2022-08-29T23:32:54.866Z,4.70
2022-08-29T23:38:00.722Z,4.50
2022-08-29T23:43:07.312Z,4.30
2022-08-29T23:48:13.283Z,4.80
2022-08-29T23:53:19.977Z,4.70
2022-08-29T23:58:25.779Z,4.50
